Aeroporto :
LOGIN :

Iscrizione | Disclaimer

   EN    FR    IT 

 










Sommario :    VFR   VFR Marginale   IFR   IFR Intensivo   IFR Molto Intensivo
Visibilità : 
Base nubi : 
>= 8 km
>= 3000ft
5 / 8 km
1000 / 3000 ft
1500m / 5 km
500 / 1000 ft
800 / 1500m
200 / 500 ft
< 800m
< 200 ft
Simboli :   Temporali  Nebbia  Neve Forte  Precipitazioni Forti  Vento > 20 kt
SIGMETs :   Varie  Temporali  Ghiacco  Turbolenza  Onda orograficha  Ceneri Vulcaniche






- Altitudine del aeroporto : 479 ft
- Codice IATA : DOL


LFRG - Deauville

ULTIMO METAR :
  • 242300Z AUTO 16007KT CAVOK 06/04 Q1013

METARs OBSOLETI :
  • 242230Z AUTO 15007KT CAVOK 07/04 Q1014
  • 242200Z AUTO 16007KT CAVOK 07/05 Q1014
  • 242130Z AUTO 16006KT CAVOK 07/04 Q1014
  • 242100Z AUTO 15008KT CAVOK 07/05 Q1014 NOSIG
  • 242030Z AUTO 16007KT CAVOK 08/04 Q1014 NOSIG

TAF TAF LFRG
Valido dal 24 a 15 ore il 25 a 00 ore UTC


241400Z 2415/2424 17011KT CAVOK
ATIS : +33 2 31 65 65 36



MetMap, La meteo Aeronautica in un colpo d'occhio ! - Copyright ORBIFLY Dicembre 2007 - Disclaimer

ORBIFLY MET'MAP TEAM :

Programmazione e sviluppo : Alexandra Zaïnal
Concezione : Baudouin d'Aumeries
Aiuto per la programmazione : Marc-Olivier Méhu
Supporto tecnico e logistico : Manuel Goepfert
Aiuto per la traduzione : Arnaldo La Scala

Contatto : metmap@orbifly.com




FONTI E CREDITI :

   NOAA